<?xml version="1.0" encoding="UTF-8" standalone="no" ?>
<gpx xmlns="http://www.topografix.com/GPX/1/1" xmlns:xsi="http://www.w3.org/2001/XMLSchema-instance" xsi:schemaLocation="http://www.topografix.com/GPX/1/1 http://www.topografix.com/GPX/1/1/gpx.xsd" version="1.1" creator="VisuGPX - https://www.visugpx.com">
  <metadata>
    <name>Montillot vieille borde</name>
    <desc><![CDATA[Montillot, Vieille Borde
Dist 11km
]]></desc>
  </metadata>
  <trk>
    <name><![CDATA[Montillot vieille borde_1]]></name>
    <extensions>
      <line xmlns="http://www.topografix.com/GPX/gpx_style/0/2">
        <color>0000FF</color>
        <width>4</width>
      </line>
    </extensions>
    <trkseg>
      <trkpt lat="47.51904" lon="3.72001">
        <ele>233</ele>
        <time>2022-09-01T19:40:42+02:00</time>
      </trkpt>
      <trkpt lat="47.51762" lon="3.71995">
        <ele>235</ele>
        <time>2022-09-01T19:43:45+02:00</time>
      </trkpt>
      <trkpt lat="47.51698" lon="3.71907">
        <ele>236</ele>
        <time>2022-09-01T19:45:35+02:00</time>
      </trkpt>
      <trkpt lat="47.5162" lon="3.71745">
        <ele>241</ele>
        <time>2022-09-01T19:49:00+02:00</time>
      </trkpt>
      <trkpt lat="47.51552" lon="3.71492">
        <ele>257</ele>
        <time>2022-09-01T19:55:15+02:00</time>
      </trkpt>
      <trkpt lat="47.51169" lon="3.71355">
        <ele>289</ele>
        <time>2022-09-01T20:08:15+02:00</time>
      </trkpt>
      <trkpt lat="47.51" lon="3.71176">
        <ele>306</ele>
        <time>2022-09-01T20:15:08+02:00</time>
      </trkpt>
      <trkpt lat="47.50865" lon="3.71051">
        <ele>316</ele>
        <time>2022-09-01T20:19:54+02:00</time>
      </trkpt>
      <trkpt lat="47.50721" lon="3.70968">
        <ele>317</ele>
        <time>2022-09-01T20:23:01+02:00</time>
      </trkpt>
      <trkpt lat="47.50607" lon="3.71">
        <ele>312</ele>
        <time>2022-09-01T20:25:14+02:00</time>
      </trkpt>
      <trkpt lat="47.50508" lon="3.70975">
        <ele>303</ele>
        <time>2022-09-01T20:27:08+02:00</time>
      </trkpt>
      <trkpt lat="47.50419" lon="3.70846">
        <ele>298</ele>
        <time>2022-09-01T20:29:30+02:00</time>
      </trkpt>
      <trkpt lat="47.50273" lon="3.70718">
        <ele>293</ele>
        <time>2022-09-01T20:32:44+02:00</time>
      </trkpt>
      <trkpt lat="47.50176" lon="3.70664">
        <ele>289</ele>
        <time>2022-09-01T20:34:43+02:00</time>
      </trkpt>
      <trkpt lat="47.50043" lon="3.7061">
        <ele>281</ele>
        <time>2022-09-01T20:37:21+02:00</time>
      </trkpt>
      <trkpt lat="47.49938" lon="3.70575">
        <ele>271</ele>
        <time>2022-09-01T20:39:24+02:00</time>
      </trkpt>
      <trkpt lat="47.49778" lon="3.70496">
        <ele>249</ele>
        <time>2022-09-01T20:42:37+02:00</time>
      </trkpt>
      <trkpt lat="47.4974" lon="3.70442">
        <ele>243</ele>
        <time>2022-09-01T20:43:38+02:00</time>
      </trkpt>
      <trkpt lat="47.49679" lon="3.70434">
        <ele>237</ele>
        <time>2022-09-01T20:44:48+02:00</time>
      </trkpt>
      <trkpt lat="47.4965" lon="3.70393">
        <ele>234</ele>
        <time>2022-09-01T20:45:34+02:00</time>
      </trkpt>
      <trkpt lat="47.49608" lon="3.70363">
        <ele>231</ele>
        <time>2022-09-01T20:46:27+02:00</time>
      </trkpt>
      <trkpt lat="47.4957" lon="3.70324">
        <ele>228</ele>
        <time>2022-09-01T20:47:20+02:00</time>
      </trkpt>
      <trkpt lat="47.49521" lon="3.70235">
        <ele>225</ele>
        <time>2022-09-01T20:48:49+02:00</time>
      </trkpt>
      <trkpt lat="47.4948" lon="3.70162">
        <ele>225</ele>
        <time>2022-09-01T20:50:03+02:00</time>
      </trkpt>
      <trkpt lat="47.49433" lon="3.70158">
        <ele>227</ele>
        <time>2022-09-01T20:51:17+02:00</time>
      </trkpt>
      <trkpt lat="47.49393" lon="3.70152">
        <ele>230</ele>
        <time>2022-09-01T20:52:35+02:00</time>
      </trkpt>
      <trkpt lat="47.49304" lon="3.70084">
        <ele>235</ele>
        <time>2022-09-01T20:55:21+02:00</time>
      </trkpt>
      <trkpt lat="47.49219" lon="3.70027">
        <ele>232</ele>
        <time>2022-09-01T20:57:08+02:00</time>
      </trkpt>
      <trkpt lat="47.49103" lon="3.70114">
        <ele>231</ele>
        <time>2022-09-01T20:59:36+02:00</time>
      </trkpt>
      <trkpt lat="47.49037" lon="3.70195">
        <ele>232</ele>
        <time>2022-09-01T21:01:25+02:00</time>
      </trkpt>
      <trkpt lat="47.48837" lon="3.70315">
        <ele>239</ele>
        <time>2022-09-01T21:06:44+02:00</time>
      </trkpt>
      <trkpt lat="47.48694" lon="3.7037">
        <ele>239</ele>
        <time>2022-09-01T21:09:34+02:00</time>
      </trkpt>
      <trkpt lat="47.48606" lon="3.70641">
        <ele>241</ele>
        <time>2022-09-01T21:13:47+02:00</time>
      </trkpt>
      <trkpt lat="47.48564" lon="3.70704">
        <ele>242</ele>
        <time>2022-09-01T21:15:06+02:00</time>
      </trkpt>
      <trkpt lat="47.48504" lon="3.70695">
        <ele>242</ele>
        <time>2022-09-01T21:16:15+02:00</time>
      </trkpt>
      <trkpt lat="47.48491" lon="3.70754">
        <ele>241</ele>
        <time>2022-09-01T21:17:04+02:00</time>
      </trkpt>
      <trkpt lat="47.48457" lon="3.70842">
        <ele>244</ele>
        <time>2022-09-01T21:18:53+02:00</time>
      </trkpt>
      <trkpt lat="47.48409" lon="3.70898">
        <ele>243</ele>
        <time>2022-09-01T21:20:03+02:00</time>
      </trkpt>
      <trkpt lat="47.48376" lon="3.70955">
        <ele>243</ele>
        <time>2022-09-01T21:21:01+02:00</time>
      </trkpt>
      <trkpt lat="47.48341" lon="3.71006">
        <ele>243</ele>
        <time>2022-09-01T21:21:57+02:00</time>
      </trkpt>
      <trkpt lat="47.48321" lon="3.71033">
        <ele>243</ele>
        <time>2022-09-01T21:22:28+02:00</time>
      </trkpt>
      <trkpt lat="47.48278" lon="3.71047">
        <ele>243</ele>
        <time>2022-09-01T21:23:18+02:00</time>
      </trkpt>
      <trkpt lat="47.48184" lon="3.71059">
        <ele>246</ele>
        <time>2022-09-01T21:25:37+02:00</time>
      </trkpt>
      <trkpt lat="47.48162" lon="3.71099">
        <ele>246</ele>
        <time>2022-09-01T21:26:16+02:00</time>
      </trkpt>
      <trkpt lat="47.48124" lon="3.7113">
        <ele>245</ele>
        <time>2022-09-01T21:27:06+02:00</time>
      </trkpt>
      <trkpt lat="47.48085" lon="3.71137">
        <ele>246</ele>
        <time>2022-09-01T21:28:02+02:00</time>
      </trkpt>
      <trkpt lat="47.48054" lon="3.71139">
        <ele>246</ele>
        <time>2022-09-01T21:28:37+02:00</time>
      </trkpt>
      <trkpt lat="47.48038" lon="3.71144">
        <ele>247</ele>
        <time>2022-09-01T21:29:07+02:00</time>
      </trkpt>
      <trkpt lat="47.48008" lon="3.71184">
        <ele>246</ele>
        <time>2022-09-01T21:29:53+02:00</time>
      </trkpt>
      <trkpt lat="47.47932" lon="3.71254">
        <ele>245</ele>
        <time>2022-09-01T21:31:35+02:00</time>
      </trkpt>
      <trkpt lat="47.47885" lon="3.71283">
        <ele>247</ele>
        <time>2022-09-01T21:32:54+02:00</time>
      </trkpt>
      <trkpt lat="47.47952" lon="3.71319">
        <ele>245</ele>
        <time>2022-09-01T21:34:16+02:00</time>
      </trkpt>
      <trkpt lat="47.48015" lon="3.71357">
        <ele>244</ele>
        <time>2022-09-01T21:35:34+02:00</time>
      </trkpt>
      <trkpt lat="47.48079" lon="3.71406">
        <ele>241</ele>
        <time>2022-09-01T21:36:57+02:00</time>
      </trkpt>
      <trkpt lat="47.48125" lon="3.71374">
        <ele>240</ele>
        <time>2022-09-01T21:37:55+02:00</time>
      </trkpt>
      <trkpt lat="47.48173" lon="3.714">
        <ele>240</ele>
        <time>2022-09-01T21:38:54+02:00</time>
      </trkpt>
      <trkpt lat="47.48366" lon="3.71544">
        <ele>237</ele>
        <time>2022-09-01T21:43:02+02:00</time>
      </trkpt>
      <trkpt lat="47.48462" lon="3.71663">
        <ele>234</ele>
        <time>2022-09-01T21:45:25+02:00</time>
      </trkpt>
      <trkpt lat="47.48568" lon="3.71912">
        <ele>229</ele>
        <time>2022-09-01T21:49:13+02:00</time>
      </trkpt>
      <trkpt lat="47.48609" lon="3.72037">
        <ele>233</ele>
        <time>2022-09-01T21:51:41+02:00</time>
      </trkpt>
      <trkpt lat="47.48718" lon="3.72014">
        <ele>231</ele>
        <time>2022-09-01T21:53:47+02:00</time>
      </trkpt>
      <trkpt lat="47.48839" lon="3.71972">
        <ele>223</ele>
        <time>2022-09-01T21:56:10+02:00</time>
      </trkpt>
      <trkpt lat="47.48852" lon="3.71829">
        <ele>228</ele>
        <time>2022-09-01T21:58:53+02:00</time>
      </trkpt>
      <trkpt lat="47.48936" lon="3.71589">
        <ele>237</ele>
        <time>2022-09-01T22:03:55+02:00</time>
      </trkpt>
      <trkpt lat="47.49052" lon="3.71464">
        <ele>242</ele>
        <time>2022-09-01T22:07:30+02:00</time>
      </trkpt>
      <trkpt lat="47.49198" lon="3.71432">
        <ele>241</ele>
        <time>2022-09-01T22:10:20+02:00</time>
      </trkpt>
      <trkpt lat="47.49323" lon="3.71483">
        <ele>240</ele>
        <time>2022-09-01T22:12:48+02:00</time>
      </trkpt>
      <trkpt lat="47.49621" lon="3.71611">
        <ele>248</ele>
        <time>2022-09-01T22:20:06+02:00</time>
      </trkpt>
      <trkpt lat="47.49743" lon="3.71653">
        <ele>244</ele>
        <time>2022-09-01T22:22:29+02:00</time>
      </trkpt>
      <trkpt lat="47.49872" lon="3.71635">
        <ele>245</ele>
        <time>2022-09-01T22:25:08+02:00</time>
      </trkpt>
      <trkpt lat="47.50041" lon="3.71648">
        <ele>250</ele>
        <time>2022-09-01T22:29:13+02:00</time>
      </trkpt>
      <trkpt lat="47.50218" lon="3.71732">
        <ele>258</ele>
        <time>2022-09-01T22:34:09+02:00</time>
      </trkpt>
      <trkpt lat="47.50387" lon="3.71838">
        <ele>273</ele>
        <time>2022-09-01T22:40:13+02:00</time>
      </trkpt>
      <trkpt lat="47.50526" lon="3.71728">
        <ele>289</ele>
        <time>2022-09-01T22:45:58+02:00</time>
      </trkpt>
      <trkpt lat="47.50687" lon="3.71717">
        <ele>299</ele>
        <time>2022-09-01T22:50:45+02:00</time>
      </trkpt>
      <trkpt lat="47.50852" lon="3.71855">
        <ele>289</ele>
        <time>2022-09-01T22:54:22+02:00</time>
      </trkpt>
      <trkpt lat="47.50979" lon="3.71927">
        <ele>276</ele>
        <time>2022-09-01T22:56:58+02:00</time>
      </trkpt>
      <trkpt lat="47.51076" lon="3.72038">
        <ele>264</ele>
        <time>2022-09-01T22:59:19+02:00</time>
      </trkpt>
      <trkpt lat="47.5117" lon="3.72102">
        <ele>261</ele>
        <time>2022-09-01T23:01:17+02:00</time>
      </trkpt>
      <trkpt lat="47.51342" lon="3.72113">
        <ele>249</ele>
        <time>2022-09-01T23:04:34+02:00</time>
      </trkpt>
      <trkpt lat="47.51428" lon="3.72224">
        <ele>244</ele>
        <time>2022-09-01T23:06:45+02:00</time>
      </trkpt>
      <trkpt lat="47.51555" lon="3.72152">
        <ele>231</ele>
        <time>2022-09-01T23:09:21+02:00</time>
      </trkpt>
      <trkpt lat="47.51611" lon="3.72046">
        <ele>233</ele>
        <time>2022-09-01T23:11:25+02:00</time>
      </trkpt>
      <trkpt lat="47.51734" lon="3.72031">
        <ele>234</ele>
        <time>2022-09-01T23:13:56+02:00</time>
      </trkpt>
      <trkpt lat="47.51832" lon="3.72034">
        <ele>234</ele>
        <time>2022-09-01T23:15:49+02:00</time>
      </trkpt>
      <trkpt lat="47.5192" lon="3.7204">
        <ele>232</ele>
        <time>2022-09-01T23:17:29+02:00</time>
      </trkpt>
    </trkseg>
  </trk>
</gpx>